Flight Track Log - Related Links

Times and Time Zones

All times are in EDT time to prevent confusion due to time zone crossing. See the AAL297 flight status page for this flight to view local times or setup timezone preferences in your user account.

Time Position Orientation Groundspeed Altitude Reporting Facility
EDT Latitude Longitude Course Direction KTS MPH feet Rate Location/Type
Thu 07:40:19 PM 33.9310 -118.4570 259° West 200 230 1,700  Level FlightAware ADS-B
Thu 07:40:49 PM 33.9250 -118.4950 259° West 236 272 2,700 1,855 Climbing FlightAware ADS-B
Thu 07:41:14 PM 33.9210 -118.5290 262° West 256 295 3,400 2,182 Climbing FlightAware ADS-B
Thu 07:41:44 PM 33.9160 -118.5730 262° West 267 307 4,700 2,500 Climbing FlightAware ADS-B
Thu 07:42:14 PM 33.9100 -118.6170 261° West 275 316 5,900 2,400 Climbing FlightAware ADS-B
Thu 07:42:39 PM 33.9050 -118.6540 261° West 277 319 6,900 2,400 Climbing FlightAware ADS-B
Thu 07:43:09 PM 33.8990 -118.7000 261° West 282 325 8,100 2,533 Climbing FlightAware ADS-B
Thu 07:43:24 PM 33.8960 -118.7260 262° West 285 328 8,800 2,400 Climbing FlightAware ADS-B
Thu 07:43:49 PM 33.8910 -118.7640 261° West 289 333 9,700 1,629 Climbing FlightAware ADS-B
Thu 07:44:34 PM 33.8810 -118.8400 261° West 324 373 10,700 1,200 Climbing FlightAware ADS-B
Thu 07:45:14 PM 33.8890 -118.9140 277° West 350 403 11,400 1,500 Climbing FlightAware ADS-B
Thu 07:45:54 PM 33.9260 -118.9690 309° West 353 406 12,700 2,240 Climbing FlightAware ADS-B
Thu 07:46:29 PM 33.9680 -119.0260 312° West 360 414 14,200 2,400 Climbing FlightAware ADS-B
Thu 07:47:09 PM 34.0090 -119.0810 312° West 367 422 15,700 1,133 Climbing FlightAware ADS-B
Thu 07:47:59 PM 34.0510 -119.1390 311° West 367 422 15,900 2,400 Climbing FlightAware ADS-B
Thu 07:48:44 PM 34.1210 -119.2350 311° West 383 441 19,500 3,600 Climbing FlightAware ADS-B
Thu 07:49:24 PM 34.1700 -119.3030 311° West 388 447 21,000 2,047 Climbing FlightAware ADS-B
Thu 07:50:09 PM 34.2220 -119.3740 312° West 397 457 22,400 1,740 Climbing FlightAware ADS-B
Thu 07:51:04 PM 34.2900 -119.4680 311° West 410 472 23,900 1,667 Climbing FlightAware ADS-B
Thu 07:51:39 PM 34.3340 -119.5300 311° West 416 479 24,900 750 Climbing FlightAware ADS-B
Thu 07:52:24 PM 34.3840 -119.6020 310° West 416 479 24,900 1,067 Level FlightAware ADS-B
Thu 07:53:09 PM 34.4430 -119.6840 311° West 421 484 26,500 2,333 Climbing FlightAware ADS-B
Thu 07:53:54 PM 34.5080 -119.7680 313° West 434 499 28,400 1,425 Climbing FlightAware ADS-B
Thu 07:54:29 PM 34.5550 -119.8230 316° Northwest 434 499 28,400  Level FlightAware ADS-B
Thu 07:55:09 PM 34.6040 -119.8800 316° Northwest 434 499 28,400 1,326 Level FlightAware ADS-B
Thu 07:56:04 PM 34.7250 -119.9530 334° Northwest 452 520 30,500 1,200 Climbing FlightAware ADS-B
Thu 07:56:54 PM 34.7980 -120.0150 325° Northwest 452 520 30,500  Level FlightAware ADS-B
Thu 07:57:34 PM 34.8560 -120.0650 325° Northwest 452 520 30,500  Level FlightAware ADS-B
Thu 07:58:14 PM 34.9140 -120.1140 325° Northwest 452 520 30,500  Level FlightAware ADS-B
Thu 07:58:54 PM 34.9730 -120.1640 325° Northwest 452 520 30,500  Level FlightAware ADS-B
Thu 07:59:34 PM 35.0310 -120.2140 325° Northwest 452 520 30,500  Level FlightAware ADS-B
Thu 08:00:24 PM 35.1040 -120.2760 325° Northwest 452 520 30,500  Level FlightAware ADS-B
Thu 08:01:04 PM 35.1620 -120.3260 325° Northwest 452 520 30,500 4,125 Level FlightAware ADS-B
Thu 08:01:44 PM 35.2930 -120.4260 328° Northwest 431 496 36,000 4,125 Climbing FlightAware ADS-B
Thu 08:02:24 PM 35.3580 -120.4810 325° Northwest 431 496 36,000  Level FlightAware ADS-B
Thu 08:03:24 PM 35.4540 -120.5630 325° Northwest 430 495 36,000  Level FlightAware ADS-B
Thu 08:04:04 PM 35.5100 -120.6110 325° Northwest 430 495 36,000  Level FlightAware ADS-B
Thu 08:04:44 PM 35.5650 -120.6580 325° Northwest 430 495 36,000  Level FlightAware ADS-B
Thu 08:05:34 PM 35.6530 -120.7560 318° Northwest 428 493 36,000  Level FlightAware ADS-B
Thu 08:06:29 PM 35.6660 -120.8970 277° West 431 496 36,000  Level FlightAware ADS-B
Thu 08:07:09 PM 35.6790 -120.9780 281° West 431 496 36,000  Level FlightAware ADS-B
Thu 08:07:49 PM 35.6920 -121.0600 281° West 431 496 36,000  Level FlightAware ADS-B
Thu 08:08:24 PM 35.7070 -121.1620 280° West 434 499 36,000  Level FlightAware ADS-B
Thu 08:09:09 PM 35.7210 -121.2600 280° West 434 499 36,000  Level FlightAware ADS-B
Thu 08:09:49 PM 35.7250 -121.2810 283° West 434 499 36,000  Level FlightAware ADS-B
Thu 08:10:39 PM 35.7400 -121.3850 280° West 434 499 36,000  Level FlightAware ADS-B
Thu 08:11:14 PM 35.7700 -121.5760 281° West 438 504 36,000  Level FlightAware ADS-B
Thu 08:12:04 PM 35.7900 -121.7140 280° West 439 505 36,000  Level FlightAware ADS-B
Thu 08:12:44 PM 35.8040 -121.8070 281° West 439 505 36,000  Level FlightAware ADS-B
Thu 08:13:29 PM 35.8170 -121.8960 280° West 440 506 36,000  Level FlightAware ADS-B
Thu 08:14:09 PM 35.8290 -121.9800 280° West 440 506 36,000  Level FlightAware ADS-B
Thu 08:14:49 PM 35.8410 -122.0640 280° West 440 506 36,000  Level FlightAware ADS-B
Thu 08:15:44 PM 35.8700 -122.2550 281° West 446 513 36,000  Level FlightAware ADS-B
Thu 08:16:29 PM 35.8870 -122.3760 280° West 446 513 36,000  Level FlightAware ADS-B
Thu 08:17:09 PM 35.9000 -122.4680 280° West 448 516 36,000  Level FlightAware ADS-B
Thu 08:17:54 PM 35.9170 -122.5880 280° West 448 516 36,000  Level FlightAware ADS-B
Thu 08:18:44 PM 35.9340 -122.7040 280° West 448 516 36,000  Level FlightAware ADS-B
Thu 08:19:34 PM 35.9510 -122.8110 281° West 448 516 36,000  Level FlightAware ADS-B
Thu 08:20:14 PM 35.9650 -122.8970 281° West 448 516 36,000  Level FlightAware ADS-B
Thu 08:20:54 PM 35.9780 -122.9820 281° West 448 516 36,000  Level FlightAware ADS-B
Thu 08:21:34 PM 35.9910 -123.0680 281° West 448 516 36,000  Level FlightAware ADS-B
Thu 08:22:14 PM 36.0050 -123.1530 282° West 448 516 36,000  Level FlightAware ADS-B
Thu 08:23:04 PM 36.0220 -123.2600 281° West 448 516 36,000  Level FlightAware ADS-B
Thu 08:23:44 PM 36.0350 -123.3460 281° West 448 516 36,000  Level FlightAware ADS-B
Thu 08:24:29 PM 36.0540 -123.5830 276° West 453 521 36,000  Level FlightAware ADS-B
Thu 08:24:59 PM 36.0640 -123.6580 279° West 452 520 36,000  Level FlightAware ADS-B
Thu 08:25:44 PM 36.0770 -123.7640 279° West 452 520 36,000  Level FlightAware ADS-B
Thu 08:26:34 PM 36.0910 -123.8730 279° West 452 520 36,000  Level FlightAware ADS-B
Thu 08:27:14 PM 36.1020 -123.9600 279° West 452 520 36,000  Level FlightAware ADS-B
Thu 08:27:54 PM 36.1140 -124.0470 280° West 452 520 36,000  Level FlightAware ADS-B
Thu 08:28:34 PM 36.1250 -124.1340 279° West 452 520 36,000  Level FlightAware ADS-B
Thu 08:29:14 PM 36.1360 -124.2210 279° West 452 520 36,000  Level FlightAware ADS-B
Thu 08:30:04 PM 36.1500 -124.3290 279° West 452 520 36,000  Level FlightAware ADS-B
Thu 08:30:44 PM 36.1610 -124.4160 279° West 452 520 36,000  Level FlightAware ADS-B
Thu 08:31:24 PM 36.1720 -124.5030 279° West 452 520 36,000  Level FlightAware ADS-B
Thu 08:32:04 PM 36.1830 -124.5900 279° West 452 520 36,000  Level FlightAware ADS-B
Thu 08:32:44 PM 36.1940 -124.6770 279° West 452 520 36,000  Level FlightAware ADS-B
Thu 08:33:24 PM 36.2050 -124.7640 279° West 452 520 36,000  Level FlightAware ADS-B
Thu 08:34:14 PM 36.2190 -124.8730 279° West 452 520 36,000  Level FlightAware ADS-B
Thu 08:34:54 PM 36.2300 -124.9600 279° West 452 520 36,000  Level FlightAware ADS-B
Thu 08:35:16 PM 36.2700 -125.2328 279° West 456 525 36,000  Level Oakland Center
Thu 08:36:18 PM 36.2903 -125.3883 279° West 455 524 36,000  Level Oakland Center
Thu 08:37:19 PM 36.3103 -125.5442 279° West 457 526 36,000  Level Oakland Center
Thu 08:38:20 PM 36.3281 -125.7000 278° West 458 527 36,000  Level Oakland Center
Thu 08:39:21 PM 36.3475 -125.8644 278° West 456 525 36,000  Level Oakland Center
Thu 08:40:23 PM 36.3650 -126.0192 278° West 455 524 36,000  Level Oakland Center
Thu 08:41:24 PM 36.3811 -126.1633 278° West 455 524 36,000  Level Oakland Center
Thu 08:42:25 PM 36.3986 -126.3181 278° West 454 522 36,000  Level Oakland Center
Thu 08:43:27 PM 36.4206 -126.5056 278° West 455 524 36,000  Level Oakland Center
Thu 08:44:28 PM 36.4369 -126.6603 278° West 455 524 36,000  Level Oakland Center
Thu 08:45:29 PM 36.4522 -126.8142 277° West 454 522 36,000  Level Oakland Center
Thu 08:47:15 PM 36.4667 -126.9333 250° West 452 520 36,000  Level Oakland Oceanic (ODAPS)
Thu 08:53:00 PM 36.1637 -127.9577 250° West 452 520 36,000  Level FlightAware Transoceanic
Thu 08:54:00 PM 36.1197 -128.1034 249° West 452 520 36,000  Level FlightAware Transoceanic
Thu 08:55:00 PM 36.0756 -128.2490 249° West 452 520 36,000  Level FlightAware Transoceanic
Thu 08:56:00 PM 36.0312 -128.3943 249° West 452 520 36,000  Level FlightAware Transoceanic
Thu 08:57:00 PM 35.9867 -128.5395 249° West 452 520 36,000  Level FlightAware Transoceanic
Thu 08:58:00 PM 35.9420 -128.6846 249° West 452 520 36,000  Level FlightAware Transoceanic
Thu 08:59:00 PM 35.8971 -128.8294 249° West 452 520 36,000  Level FlightAware Transoceanic
Thu 09:00:00 PM 35.8521 -128.9742 249° West 452 520 36,000  Level FlightAware Transoceanic
Thu 09:01:00 PM 35.8069 -129.1187 249° West 452 520 36,000  Level FlightAware Transoceanic
Thu 09:02:00 PM 35.7615 -129.2631 249° West 452 520 36,000  Level FlightAware Transoceanic
Thu 09:03:00 PM 35.7160 -129.4073 249° West 452 520 36,000  Level FlightAware Transoceanic
Thu 09:04:00 PM 35.6702 -129.5513 249° West 452 520 36,000  Level FlightAware Transoceanic
Thu 09:05:00 PM 35.6243 -129.6952 249° West 452 520 36,000  Level FlightAware Transoceanic
Thu 09:06:00 PM 35.5783 -129.8389 248° West 452 520 36,000  Level FlightAware Transoceanic
Thu 09:07:00 PM 35.5320 -129.9825 248° West 452 520 36,000  Level FlightAware Transoceanic
Thu 09:08:00 PM 35.4856 -130.1259 248° West 452 520 36,000  Level FlightAware Transoceanic
Thu 09:09:00 PM 35.4390 -130.2691 248° West 452 520 36,000  Level FlightAware Transoceanic
Thu 09:10:00 PM 35.3923 -130.4122 248° West 452 520 36,000  Level FlightAware Transoceanic
Thu 09:11:00 PM 35.3454 -130.5551 248° West 452 520 36,000  Level FlightAware Transoceanic
Thu 09:12:00 PM 35.2983 -130.6978 248° West 452 520 36,000  Level FlightAware Transoceanic
Thu 09:13:00 PM 35.2510 -130.8403 248° West 452 520 36,000  Level FlightAware Transoceanic
Thu 09:14:00 PM 35.2036 -130.9827 248° West 452 520 36,000  Level FlightAware Transoceanic
Thu 09:15:00 PM 35.1560 -131.1249 248° West 452 520 36,000  Level FlightAware Transoceanic
Thu 09:16:00 PM 35.1082 -131.2670 248° West 452 520 36,000  Level FlightAware Transoceanic
Thu 09:17:00 PM 35.0603 -131.4089 248° West 452 520 36,000  Level FlightAware Transoceanic
Thu 09:18:00 PM 35.0122 -131.5506 247° West 452 520 36,000  Level FlightAware Transoceanic
Thu 09:19:00 PM 34.9640 -131.6922 247° West 452 520 36,000  Level FlightAware Transoceanic
Thu 09:20:00 PM 34.9156 -131.8336 247° West 452 520 36,000  Level FlightAware Transoceanic
Thu 09:21:00 PM 34.8670 -131.9748 247° West 452 520 36,000  Level FlightAware Transoceanic
Thu 09:22:00 PM 34.8183 -132.1158 247° West 452 520 36,000  Level FlightAware Transoceanic
Thu 09:23:00 PM 34.7694 -132.2567 247° West 452 520 36,000  Level FlightAware Transoceanic
Thu 09:24:00 PM 34.7203 -132.3974 247° West 452 520 36,000  Level FlightAware Transoceanic
Thu 09:25:00 PM 34.6711 -132.5380 247° West 452 520 36,000  Level FlightAware Transoceanic
Thu 09:26:00 PM 34.6217 -132.6784 247° West 452 520 36,000  Level FlightAware Transoceanic
Thu 09:27:00 PM 34.5722 -132.8186 247° West 452 520 36,000  Level FlightAware Transoceanic
Thu 09:28:00 PM 34.5224 -132.9587 247° West 452 520 36,000  Level FlightAware Transoceanic
Thu 09:29:00 PM 34.4726 -133.0986 247° West 452 520 36,000  Level FlightAware Transoceanic
Thu 09:30:00 PM 34.4226 -133.2383 246° West 452 520 36,000  Level FlightAware Transoceanic
Thu 09:31:00 PM 34.3724 -133.3778 246° West 452 520 36,000  Level FlightAware Transoceanic
Thu 09:32:00 PM 34.3220 -133.5172 246° West 452 520 36,000  Level FlightAware Transoceanic
Thu 09:33:00 PM 34.2715 -133.6564 246° West 452 520 36,000  Level FlightAware Transoceanic
Thu 09:34:00 PM 34.2209 -133.7955 246° West 452 520 36,000  Level FlightAware Transoceanic
Thu 09:35:00 PM 34.1701 -133.9344 246° West 452 520 36,000  Level FlightAware Transoceanic
Thu 09:36:00 PM 34.1191 -134.0731 246° West 452 520 36,000  Level FlightAware Transoceanic
Thu 09:37:00 PM 34.0680 -134.2116 246° West 452 520 36,000  Level FlightAware Transoceanic
Thu 09:38:00 PM 34.0167 -134.3500 246° West 452 520 36,000  Level FlightAware Transoceanic
Thu 09:39:00 PM 33.9659 -134.4875 246° West 452 520 36,000  Level FlightAware Transoceanic
Thu 09:40:00 PM 33.9149 -134.6248 246° West 452 520 36,000  Level FlightAware Transoceanic
Thu 09:40:37 PM 34.0167 -134.3500 246° West 450 518 36,000  Level Oakland Oceanic (ODAPS)
Thu 09:41:00 PM 33.8638 -134.7620 246° West 452 520 36,000  Level FlightAware Transoceanic
Thu 09:42:00 PM 33.8126 -134.8990 246° West 452 520 36,000  Level FlightAware Transoceanic
Thu 09:43:00 PM 33.7612 -135.0358 246° West 452 520 36,000  Level FlightAware Transoceanic
Thu 09:44:00 PM 33.7096 -135.1725 246° West 452 520 36,000  Level FlightAware Transoceanic
Thu 09:45:00 PM 33.6579 -135.3090 245° Southwest 452 520 36,000  Level FlightAware Transoceanic
Thu 09:46:00 PM 33.6061 -135.4454 245° Southwest 452 520 36,000  Level FlightAware Transoceanic
Thu 09:47:00 PM 33.5541 -135.5815 245° Southwest 450 518 36,000  Level FlightAware Transoceanic
Thu 09:48:00 PM 33.5019 -135.7176 245° Southwest 450 518 36,000  Level FlightAware Transoceanic
Thu 09:49:00 PM 33.4496 -135.8534 245° Southwest 450 518 36,000  Level FlightAware Transoceanic
Thu 09:50:00 PM 33.3972 -135.9891 245° Southwest 450 518 36,000  Level FlightAware Transoceanic
Thu 09:51:00 PM 33.3446 -136.1246 245° Southwest 450 518 36,000  Level FlightAware Transoceanic
Thu 09:52:00 PM 33.2918 -136.2600 245° Southwest 450 518 36,000  Level FlightAware Transoceanic
Thu 09:53:00 PM 33.2389 -136.3952 245° Southwest 450 518 36,000  Level FlightAware Transoceanic
Thu 09:54:00 PM 33.1859 -136.5302 245° Southwest 450 518 36,000  Level FlightAware Transoceanic
Thu 09:55:00 PM 33.1327 -136.6651 245° Southwest 450 518 36,000  Level FlightAware Transoceanic
Thu 09:56:00 PM 33.0794 -136.7998 245° Southwest 450 518 36,000  Level FlightAware Transoceanic
Thu 09:57:00 PM 33.0259 -136.9343 245° Southwest 450 518 36,000  Level FlightAware Transoceanic
Thu 09:58:00 PM 32.9723 -137.0687 245° Southwest 450 518 36,000  Level FlightAware Transoceanic
Thu 09:59:00 PM 32.9186 -137.2029 244° Southwest 450 518 36,000  Level FlightAware Transoceanic
Thu 10:00:00 PM 32.8647 -137.3370 244° Southwest 450 518 36,000  Level FlightAware Transoceanic
Thu 10:01:00 PM 32.8106 -137.4709 244° Southwest 450 518 36,000  Level FlightAware Transoceanic
Thu 10:02:00 PM 32.7564 -137.6046 244° Southwest 450 518 36,000  Level FlightAware Transoceanic
Thu 10:03:00 PM 32.7021 -137.7382 244° Southwest 450 518 36,000  Level FlightAware Transoceanic
Thu 10:04:00 PM 32.6476 -137.8716 244° Southwest 450 518 36,000  Level FlightAware Transoceanic
Thu 10:05:00 PM 32.5930 -138.0048 244° Southwest 450 518 36,000  Level FlightAware Transoceanic
Thu 10:06:00 PM 32.5383 -138.1379 244° Southwest 450 518 36,000  Level FlightAware Transoceanic
Thu 10:07:00 PM 32.4834 -138.2708 244° Southwest 450 518 36,000  Level FlightAware Transoceanic
Thu 10:08:00 PM 32.4284 -138.4035 244° Southwest 450 518 36,000  Level FlightAware Transoceanic
Thu 10:09:00 PM 32.3732 -138.5361 244° Southwest 450 518 36,000  Level FlightAware Transoceanic
Thu 10:10:00 PM 32.3179 -138.6686 244° Southwest 450 518 36,000  Level FlightAware Transoceanic
Thu 10:11:00 PM 32.2624 -138.8008 244° Southwest 450 518 36,000  Level FlightAware Transoceanic
Thu 10:12:00 PM 32.2068 -138.9329 244° Southwest 450 518 36,000  Level FlightAware Transoceanic
Thu 10:13:00 PM 32.1511 -139.0649 243° Southwest 450 518 36,000  Level FlightAware Transoceanic
Thu 10:14:00 PM 32.0953 -139.1967 243° Southwest 450 518 36,000  Level FlightAware Transoceanic
Thu 10:15:00 PM 32.0393 -139.3283 243° Southwest 450 518 36,000  Level FlightAware Transoceanic
Thu 10:16:00 PM 31.9832 -139.4597 243° Southwest 450 518 36,000  Level FlightAware Transoceanic
Thu 10:17:00 PM 31.9269 -139.5910 243° Southwest 450 518 36,000  Level FlightAware Transoceanic
Thu 10:18:00 PM 31.8705 -139.7222 243° Southwest 450 518 36,000  Level FlightAware Transoceanic
Thu 10:19:00 PM 31.8139 -139.8531 243° Southwest 450 518 36,000  Level FlightAware Transoceanic
Thu 10:20:00 PM 31.7573 -139.9840 243° Southwest 450 518 36,000  Level FlightAware Transoceanic
Thu 10:21:00 PM 31.7005 -140.1146 243° Southwest 450 518 36,000  Level FlightAware Transoceanic
Thu 10:22:00 PM 31.6436 -140.2451 243° Southwest 450 518 36,000  Level FlightAware Transoceanic
Thu 10:23:00 PM 31.5865 -140.3754 243° Southwest 450 518 36,000  Level FlightAware Transoceanic
Thu 10:24:00 PM 31.5293 -140.5056 243° Southwest 450 518 36,000  Level FlightAware Transoceanic
Thu 10:25:00 PM 31.4720 -140.6356 243° Southwest 450 518 36,000  Level FlightAware Transoceanic
Thu 10:26:00 PM 31.4145 -140.7655 243° Southwest 450 518 36,000  Level FlightAware Transoceanic
Thu 10:27:00 PM 31.3569 -140.8952 242° Southwest 450 518 36,000  Level FlightAware Transoceanic
Thu 10:28:00 PM 31.2992 -141.0247 242° Southwest 450 518 36,000  Level FlightAware Transoceanic
Thu 10:29:00 PM 31.2413 -141.1541 242° Southwest 450 518 36,000  Level FlightAware Transoceanic
Thu 10:30:00 PM 31.1833 -141.2833 242° Southwest 450 518 36,000  Level FlightAware Transoceanic
Thu 10:31:00 PM 31.1257 -141.4111 242° Southwest 450 518 36,000  Level FlightAware Transoceanic
Thu 10:32:00 PM 31.0679 -141.5387 242° Southwest 450 518 36,000 2,474 Level FlightAware Transoceanic
Thu 10:32:37 PM 31.1833 -141.2833 242° Southwest 445 512 40,000  Climbing Oakland Oceanic (ODAPS)
Thu 10:33:00 PM 31.0100 -141.6662 242° Southwest 450 518 36,000 -2,892 Descending FlightAware Transoceanic
Thu 10:34:00 PM 30.9519 -141.7935 242° Southwest 450 518 36,000  Level FlightAware Transoceanic
Thu 10:35:00 PM 30.8938 -141.9207 242° Southwest 450 518 36,000  Level FlightAware Transoceanic
Thu 10:36:00 PM 30.8355 -142.0477 242° Southwest 450 518 36,000  Level FlightAware Transoceanic
Thu 10:37:00 PM 30.7771 -142.1745 242° Southwest 450 518 36,000  Level FlightAware Transoceanic
Thu 10:38:00 PM 30.7185 -142.3012 242° Southwest 450 518 36,000 2,000 Level FlightAware Transoceanic
Thu 10:39:00 PM 30.7185 -142.3012 242° Southwest 445 512 40,000 2,000 Climbing FlightAware Transoceanic
Thu 10:40:00 PM 30.6599 -142.4277 242° Southwest 445 512 40,000  Level FlightAware Transoceanic
Thu 10:41:00 PM 30.6011 -142.5541 242° Southwest 445 512 40,000  Level FlightAware Transoceanic
Thu 10:42:00 PM 30.5422 -142.6803 242° Southwest 445 512 40,000  Level FlightAware Transoceanic
Thu 10:43:00 PM 30.4832 -142.8064 241° Southwest 445 512 40,000  Level FlightAware Transoceanic
Thu 10:44:00 PM 30.4240 -142.9323 241° Southwest 445 512 40,000  Level FlightAware Transoceanic
Thu 10:45:00 PM 30.3647 -143.0581 241° Southwest 445 512 40,000  Level FlightAware Transoceanic
Thu 10:46:00 PM 30.3054 -143.1837 241° Southwest 445 512 40,000  Level FlightAware Transoceanic
Thu 10:47:00 PM 30.2459 -143.3092 241° Southwest 445 512 40,000  Level FlightAware Transoceanic
Thu 10:48:00 PM 30.1862 -143.4345 241° Southwest 445 512 40,000  Level FlightAware Transoceanic
Thu 10:49:00 PM 30.1265 -143.5597 241° Southwest 445 512 40,000  Level FlightAware Transoceanic
Thu 10:50:00 PM 30.0666 -143.6847 241° Southwest 445 512 40,000  Level FlightAware Transoceanic
Thu 10:51:00 PM 30.0066 -143.8095 241° Southwest 445 512 40,000  Level FlightAware Transoceanic
Thu 10:52:00 PM 29.9465 -143.9342 241° Southwest 445 512 40,000  Level FlightAware Transoceanic
Thu 10:53:00 PM 29.8863 -144.0588 241° Southwest 445 512 40,000  Level FlightAware Transoceanic
Thu 10:54:00 PM 29.8260 -144.1832 241° Southwest 445 512 40,000  Level FlightAware Transoceanic
Thu 10:55:00 PM 29.7655 -144.3075 241° Southwest 445 512 40,000  Level FlightAware Transoceanic
Thu 10:56:00 PM 29.7050 -144.4316 241° Southwest 445 512 40,000  Level FlightAware Transoceanic
Thu 10:57:00 PM 29.6443 -144.5555 241° Southwest 445 512 40,000  Level FlightAware Transoceanic
Thu 10:58:00 PM 29.5835 -144.6793 241° Southwest 445 512 40,000  Level FlightAware Transoceanic
Thu 10:59:00 PM 29.5226 -144.8030 240° Southwest 445 512 40,000  Level FlightAware Transoceanic
Thu 11:00:00 PM 29.4616 -144.9265 240° Southwest 445 512 40,000  Level FlightAware Transoceanic
Thu 11:01:00 PM 29.4004 -145.0499 240° Southwest 445 512 40,000  Level FlightAware Transoceanic
Thu 11:02:00 PM 29.3392 -145.1731 240° Southwest 445 512 40,000  Level FlightAware Transoceanic
Thu 11:03:00 PM 29.2778 -145.2961 240° Southwest 445 512 40,000  Level FlightAware Transoceanic
Thu 11:04:00 PM 29.2163 -145.4191 240° Southwest 445 512 40,000  Level FlightAware Transoceanic
Thu 11:05:00 PM 29.1547 -145.5418 240° Southwest 445 512 40,000  Level FlightAware Transoceanic
Thu 11:06:00 PM 29.0930 -145.6644 240° Southwest 445 512 40,000  Level FlightAware Transoceanic
Thu 11:07:00 PM 29.0312 -145.7869 240° Southwest 445 512 40,000  Level FlightAware Transoceanic
Thu 11:08:00 PM 28.9693 -145.9093 240° Southwest 445 512 40,000  Level FlightAware Transoceanic
Thu 11:09:00 PM 28.9073 -146.0314 240° Southwest 445 512 40,000  Level FlightAware Transoceanic
Thu 11:10:00 PM 28.8451 -146.1535 240° Southwest 445 512 40,000  Level FlightAware Transoceanic
Thu 11:11:00 PM 28.7829 -146.2754 240° Southwest 445 512 40,000  Level FlightAware Transoceanic
Thu 11:12:00 PM 28.7205 -146.3971 240° Southwest 445 512 40,000  Level FlightAware Transoceanic
Thu 11:13:00 PM 28.6580 -146.5187 240° Southwest 445 512 40,000  Level FlightAware Transoceanic
Thu 11:14:00 PM 28.5954 -146.6402 240° Southwest 445 512 40,000  Level FlightAware Transoceanic
Thu 11:15:00 PM 28.5327 -146.7615 239° Southwest 445 512 40,000  Level FlightAware Transoceanic
Thu 11:16:00 PM 28.4699 -146.8826 239° Southwest 445 512 40,000  Level FlightAware Transoceanic
Thu 11:17:00 PM 28.4070 -147.0036 239° Southwest 445 512 40,000  Level FlightAware Transoceanic
Thu 11:18:00 PM 28.3440 -147.1245 239° Southwest 445 512 40,000  Level FlightAware Transoceanic
Thu 11:19:00 PM 28.2809 -147.2453 239° Southwest 445 512 40,000  Level FlightAware Transoceanic
Thu 11:20:00 PM 28.2177 -147.3658 239° Southwest 445 512 40,000  Level FlightAware Transoceanic
Thu 11:21:00 PM 28.1544 -147.4863 239° Southwest 445 512 40,000  Level FlightAware Transoceanic
Thu 11:22:00 PM 28.0909 -147.6066 239° Southwest 445 512 40,000  Level FlightAware Transoceanic
Thu 11:23:00 PM 28.0274 -147.7268 239° Southwest 445 512 40,000  Level FlightAware Transoceanic
Thu 11:24:00 PM 27.9638 -147.8468 239° Southwest 445 512 40,000  Level FlightAware Transoceanic
Thu 11:25:00 PM 27.9000 -147.9667 239° Southwest 445 512 40,000  Level FlightAware Transoceanic
Thu 11:26:00 PM 27.8359 -148.0866 239° Southwest 445 512 40,000  Level FlightAware Transoceanic
Thu 11:26:04 PM 27.9000 -147.9667 239° Southwest 454 522 40,000  Level Oakland Oceanic (ODAPS)
Thu 11:27:00 PM 27.7717 -148.2064 239° Southwest 445 512 40,000  Level FlightAware Transoceanic
Thu 11:28:00 PM 27.7074 -148.3261 239° Southwest 445 512 40,000  Level FlightAware Transoceanic
Thu 11:29:00 PM 27.6430 -148.4456 239° Southwest 445 512 40,000  Level FlightAware Transoceanic
Thu 11:30:00 PM 27.5785 -148.5650 239° Southwest 445 512 40,000  Level FlightAware Transoceanic
Thu 11:31:00 PM 27.5138 -148.6843 239° Southwest 445 512 40,000  Level FlightAware Transoceanic
Thu 11:32:00 PM 27.4406 -148.8191 238° Southwest 454 522 40,000  Level FlightAware Transoceanic
Thu 11:33:00 PM 27.3745 -148.9403 238° Southwest 454 522 40,000  Level FlightAware Transoceanic
Thu 11:34:00 PM 27.3083 -149.0614 238° Southwest 454 522 40,000  Level FlightAware Transoceanic
Thu 11:35:00 PM 27.2421 -149.1823 238° Southwest 454 522 40,000  Level FlightAware Transoceanic
Thu 11:36:00 PM 27.1757 -149.3031 238° Southwest 454 522 40,000  Level FlightAware Transoceanic
Thu 11:37:00 PM 27.1092 -149.4237 238° Southwest 454 522 40,000  Level FlightAware Transoceanic
Thu 11:38:00 PM 27.0427 -149.5441 238° Southwest 454 522 40,000  Level FlightAware Transoceanic
Thu 11:39:00 PM 26.9760 -149.6645 238° Southwest 454 522 40,000  Level FlightAware Transoceanic
Thu 11:40:00 PM 26.9092 -149.7847 238° Southwest 454 522 40,000  Level FlightAware Transoceanic
Thu 11:41:00 PM 26.8423 -149.9047 238° Southwest 454 522 40,000  Level FlightAware Transoceanic
Thu 11:42:00 PM 26.7754 -150.0246 238° Southwest 454 522 40,000  Level FlightAware Transoceanic
Thu 11:43:00 PM 26.7083 -150.1444 238° Southwest 454 522 40,000  Level FlightAware Transoceanic
Thu 11:44:00 PM 26.6411 -150.2640 238° Southwest 454 522 40,000  Level FlightAware Transoceanic
Thu 11:45:00 PM 26.5738 -150.3835 238° Southwest 454 522 40,000  Level FlightAware Transoceanic
Thu 11:46:00 PM 26.5064 -150.5029 238° Southwest 454 522 40,000  Level FlightAware Transoceanic
Thu 11:47:00 PM 26.4389 -150.6221 238° Southwest 454 522 40,000  Level FlightAware Transoceanic
Thu 11:48:00 PM 26.3714 -150.7411 238° Southwest 454 522 40,000  Level FlightAware Transoceanic
Thu 11:49:00 PM 26.3037 -150.8600 238° Southwest 454 522 40,000  Level FlightAware Transoceanic
Thu 11:50:00 PM 26.2359 -150.9788 238° Southwest 454 522 40,000  Level FlightAware Transoceanic
Thu 11:51:00 PM 26.1680 -151.0975 237° Southwest 454 522 40,000  Level FlightAware Transoceanic
Thu 11:52:00 PM 26.1001 -151.2160 237° Southwest 454 522 40,000  Level FlightAware Transoceanic
Thu 11:53:00 PM 26.0320 -151.3344 237° Southwest 454 522 40,000  Level FlightAware Transoceanic
Thu 11:54:00 PM 25.9638 -151.4526 237° Southwest 454 522 40,000  Level FlightAware Transoceanic
Thu 11:55:00 PM 25.8956 -151.5707 237° Southwest 454 522 40,000  Level FlightAware Transoceanic
Thu 11:56:00 PM 25.8272 -151.6886 237° Southwest 454 522 40,000  Level FlightAware Transoceanic
Thu 11:57:00 PM 25.7588 -151.8065 237° Southwest 454 522 40,000  Level FlightAware Transoceanic
Thu 11:58:00 PM 25.6902 -151.9242 237° Southwest 454 522 40,000  Level FlightAware Transoceanic
Thu 11:59:00 PM 25.6216 -152.0417 237° Southwest 454 522 40,000  Level FlightAware Transoceanic
Fri 12:00:00 AM 25.5528 -152.1591 237° Southwest 454 522 40,000  Level FlightAware Transoceanic
Fri 12:01:00 AM 25.4840 -152.2764 237° Southwest 454 522 40,000  Level FlightAware Transoceanic
Fri 12:02:00 AM 25.4151 -152.3936 237° Southwest 454 522 40,000  Level FlightAware Transoceanic
Fri 12:03:00 AM 25.3461 -152.5106 237° Southwest 454 522 40,000  Level FlightAware Transoceanic
Fri 12:04:00 AM 25.2770 -152.6275 237° Southwest 454 522 40,000  Level FlightAware Transoceanic
Fri 12:05:00 AM 25.2078 -152.7442 237° Southwest 454 522 40,000  Level FlightAware Transoceanic
Fri 12:06:00 AM 25.1385 -152.8608 237° Southwest 454 522 40,000  Level FlightAware Transoceanic
Fri 12:07:00 AM 25.0691 -152.9773 237° Southwest 454 522 40,000  Level FlightAware Transoceanic
Fri 12:08:00 AM 24.9996 -153.0937 237° Southwest 454 522 40,000  Level FlightAware Transoceanic
Fri 12:09:00 AM 24.9301 -153.2099 237° Southwest 454 522 40,000  Level FlightAware Transoceanic
Fri 12:10:00 AM 24.8604 -153.3260 236° Southwest 454 522 40,000  Level FlightAware Transoceanic
Fri 12:11:00 AM 24.7907 -153.4419 236° Southwest 454 522 40,000  Level FlightAware Transoceanic
Fri 12:12:00 AM 24.7208 -153.5578 236° Southwest 454 522 40,000  Level FlightAware Transoceanic
Fri 12:13:00 AM 24.6509 -153.6734 236° Southwest 454 522 40,000  Level FlightAware Transoceanic
Fri 12:14:00 AM 24.5809 -153.7890 236° Southwest 454 522 40,000  Level FlightAware Transoceanic
Fri 12:15:00 AM 24.5108 -153.9045 236° Southwest 454 522 40,000  Level FlightAware Transoceanic
Fri 12:16:00 AM 24.4406 -154.0198 236° Southwest 454 522 40,000  Level FlightAware Transoceanic
Fri 12:17:00 AM 24.3704 -154.1349 236° Southwest 454 522 40,000  Level FlightAware Transoceanic
Fri 12:18:00 AM 24.3000 -154.2500 236° Southwest 454 522 40,000  Level FlightAware Transoceanic
Fri 12:19:00 AM 24.2307 -154.3627 236° Southwest 454 522 40,000 -1,043 Level FlightAware Transoceanic
Fri 12:19:55 AM 24.2000 -154.3833 236° Southwest 440 506 38,000  Descending Honolulu Center
Fri 12:20:00 AM 24.1613 -154.4753 236° Southwest 454 522 40,000  Climbing FlightAware Transoceanic
Fri 12:20:55 AM 24.1333 -154.4833 234° Southwest 430 495 38,000  Descending Honolulu Center
Fri 12:21:00 AM 24.0919 -154.5878 236° Southwest 454 522 40,000  Climbing FlightAware Transoceanic
Fri 12:21:55 AM 24.0667 -154.6000 238° Southwest 440 506 38,000  Descending Honolulu Center
Fri 12:22:00 AM 24.0224 -154.7002 236° Southwest 454 522 40,000  Climbing FlightAware Transoceanic
Fri 12:22:55 AM 24.0000 -154.7000 234° Southwest 430 495 38,000  Descending Honolulu Center
Fri 12:23:00 AM 23.9527 -154.8124 236° Southwest 454 522 40,000  Climbing FlightAware Transoceanic
Fri 12:23:55 AM 23.9333 -154.8167 238° Southwest 430 495 38,000  Descending Honolulu Center
Fri 12:24:00 AM 23.8830 -154.9245 236° Southwest 454 522 40,000  Climbing FlightAware Transoceanic
Fri 12:24:55 AM 23.8667 -154.9333 238° Southwest 430 495 38,000  Descending Honolulu Center
Fri 12:25:00 AM 23.8133 -155.0365 236° Southwest 454 522 40,000  Climbing FlightAware Transoceanic
Fri 12:25:55 AM 23.8000 -155.0333 234° Southwest 440 506 38,000 -1,034 Descending Honolulu Center
Fri 12:26:56 AM 23.7000 -155.1167 217° Southwest 450 518 38,000  Level Honolulu Center
Fri 12:27:56 AM 23.6167 -155.2167 228° Southwest 440 506 38,000  Level Honolulu Center
Fri 12:28:56 AM 23.5333 -155.3167 228° Southwest 440 506 38,000  Level Honolulu Center
Fri 12:29:56 AM 23.4500 -155.3833 216° Southwest 440 506 38,000  Level Honolulu Center
Fri 12:30:56 AM 23.3500 -155.5000 227° Southwest 450 518 38,000  Level Honolulu Center
Fri 12:31:56 AM 23.2667 -155.6000 228° Southwest 450 518 38,000  Level Honolulu Center
Fri 12:32:56 AM 23.1667 -155.6833 217° Southwest 450 518 38,000  Level Honolulu Center
Fri 12:33:57 AM 23.0833 -155.7833 228° Southwest 440 506 38,000  Level Honolulu Center
Fri 12:34:56 AM 23.0000 -155.8667 223° Southwest 440 506 38,000  Level Honolulu Center
Fri 12:35:57 AM 22.9000 -155.9667 223° Southwest 440 506 38,000  Level Honolulu Center
Fri 12:36:57 AM 22.8167 -156.0500 223° Southwest 440 506 38,000  Level Honolulu Center
Fri 12:37:57 AM 22.7333 -156.1500 228° Southwest 440 506 38,000  Level Honolulu Center
Fri 12:38:57 AM 22.6333 -156.2333 218° Southwest 440 506 38,000  Level Honolulu Center
Fri 12:39:57 AM 22.5500 -156.3333 228° Southwest 440 506 38,000  Level Honolulu Center
Fri 12:40:57 AM 22.4667 -156.4333 228° Southwest 440 506 38,000  Level Honolulu Center
Fri 12:41:58 AM 22.3667 -156.5167 218° Southwest 440 506 38,000 -950 Level Honolulu Center
Fri 12:42:57 AM 22.2833 -156.6000 223° Southwest 440 506 36,100 -2,450 Descending Honolulu Center
Fri 12:43:58 AM 22.2000 -156.7000 228° Southwest 450 518 33,100 -3,025 Descending Honolulu Center
Fri 12:44:58 AM 22.1000 -156.8000 223° Southwest 460 529 30,000 -2,650 Descending Honolulu Center
Fri 12:45:58 AM 22.0167 -156.8667 217° Southwest 460 529 27,800 -2,300 Descending Honolulu Center
Fri 12:46:58 AM 21.9333 -156.9667 228° Southwest 450 518 25,400 -2,300 Descending Honolulu Center
Fri 12:47:58 AM 21.8500 -157.0500 223° Southwest 430 495 23,200 -2,158 Descending Honolulu Center
Fri 12:54:09 AM 21.3990 -157.5590 223° Southwest 325 374 9,900 -2,029 Descending FlightAware ADS-B
Fri 12:54:49 AM 21.3760 -157.6090 244° Southwest 287 330 9,300 -1,200 Descending FlightAware ADS-B
Fri 12:55:24 AM 21.3570 -157.6530 245° Southwest 291 335 8,400 -1,527 Descending FlightAware ADS-B
Fri 12:55:44 AM 21.3440 -157.6820 244° Southwest 290 334 7,900 -545 Descending FlightAware ADS-B
Fri 12:56:19 AM 21.3220 -157.7300 244° Southwest 289 333 7,900  Level FlightAware ADS-B
Fri 12:56:44 AM 21.3090 -157.7580 244° Southwest 287 330 7,900  Level FlightAware ADS-B
Fri 12:57:09 AM 21.2950 -157.7900 245° Southwest 287 330 7,900  Level FlightAware ADS-B
Fri 12:57:34 AM 21.2820 -157.8180 244° Southwest 287 330 7,900  Level FlightAware ADS-B
Fri 12:58:04 AM 21.2620 -157.8610 243° Southwest 292 336 7,900  Level FlightAware ADS-B
Fri 12:58:49 AM 21.2240 -157.9080 229° Southwest 261 300 7,900 -667 Level FlightAware ADS-B
Fri 12:59:34 AM 21.1900 -157.9510 230° Southwest 261 300 6,900 -1,148 Descending FlightAware ADS-B
Fri 01:00:44 AM 21.1380 -158.0170 230° Southwest 249 287 5,700 -900 Descending FlightAware ADS-B
Fri 01:01:14 AM 21.1150 -158.0480 232° Southwest 248 285 5,400 -600 Descending FlightAware ADS-B

Login

Don't have an account? Register now (free) for customized features, flight alerts, and more!